Strona główna
METAR-TAF:

METAR-TAF

Lotnisko :

Coatesville, Pensylwania, Stany Zjednoczone

Szerokość geograficzna: 39-58-44N, Długość geograficzna: 075-51-56W, wysokość: 201 m

Aktualna obserwacja pogody

Raport powstał 24 minut temu, godzina 05:55 UTC
Cisza
Temperatura -1°C
Wilgotność 46%
Ciśnienie 1020 hPa
Widzialność: 16.1 km
Zachmurzenie całkowite na wysokości 4800 ft

METAR: KMQS 250555Z AUTO 00000KT 10SM OVC048 M01/M11 A3013 RMK AO2

czas: 01:19 (06:19 UTC)


TAF: brakujący

Obserwacja i prognoza pogody dla ponad 4000 lotnisk (raport METAR i TAF).

Dostępne stacje oznaczono żółtymi i czerwonymi punktami na mapie.

Najedź kursorem aby zobaczyć nazwę stacji.

Kliknij aby zobaczyć obserwacje i prognozy pogody.

Aby zmienić mapę: kliknij na zielony przycisk z czarnym krzyżykiem, aby powiększyć; na zielony przycisk z myślnikiem, aby pomniejszyć; na zielone strzałki, aby przejść do map sąsiednich.


METAR-TAF: